Argo, Illinois
Current Conditions -  °F | °C
As of 4:53 PM on Wednesday 26 Nov 2014 (Local Time) from KMDW Reporting Station
Overcast Overcast  
Wind Chill: 23°   Ceiling: 2100
Heat Index: 29°   Visibility: 9mi
Dew Point: 20°   Wind: 6mph
Humidity: 69%   Direction: 100°E
Pressure: 30.12"   Gusts: NA
Location:  41.7806°N, 87.8151°W
Report Text: KMDW 262253Z 10005KT 9SM OVC021 M02/M07 A3012 RMK AO2 SLP215 T10171067
Loading
Personal Weather Stations






























Interactive Weather Map New forecast layout! Learn more

10-Day Weather Forecast

Advertisements
Track Severe Weather on mobile